Time;durP1;ratioP1;P1;durP2;ratioP2;P2;SDS_P1;SDS_P2;PMS_P1;PMS_P2;Temp;Humidity;BMP_temperature;BMP_pressure;BME280_temperature;BME280_humidity;BME280_pressure;Samples;Min_cycle;Max_cycle;Signal;HPM_P1;HPM_P2
2023/02/01 00:00:51;;;;;;;3.27;1.60;;;;;;;-145.69;100.00;52662.22;5113165;28;20201;-80
2023/02/01 00:03:18;;;;;;;2.43;1.67;;;;;;;-145.69;100.00;52686.00;5113051;28;20221;-81
2023/02/01 00:05:55;;;;;;;2.50;1.90;;;;;;;-145.69;100.00;52640.44;5112944;28;20196;-80
2023/02/01 00:08:22;;;;;;;2.57;1.67;;;;;;;-145.69;100.00;52654.31;5113469;28;20201;-83
2023/02/01 00:10:48;;;;;;;2.07;1.60;;;;;;;-145.69;100.00;52646.41;5112752;28;20197;-81
2023/02/01 00:13:15;;;;;;;3.10;1.40;;;;;;;-145.69;100.00;52650.34;5112878;28;20196;-82
2023/02/01 00:15:41;;;;;;;2.70;1.70;;;;;;;-145.69;100.00;52660.25;5113282;28;20246;-81
2023/02/01 00:18:07;;;;;;;2.03;1.40;;;;;;;-145.69;100.00;52644.41;5115556;28;20679;-82
2023/02/01 00:20:34;;;;;;;2.80;1.60;;;;;;;-145.69;100.00;52693.94;5116904;28;20204;-81
2023/02/01 00:23:01;;;;;;;2.77;1.40;;;;;;;-145.69;100.00;52654.31;5117067;28;20229;-80
2023/02/01 00:25:28;;;;;;;1.47;1.33;;;;;;;-145.69;100.00;52650.34;5116803;28;20578;-81
2023/02/01 00:27:56;;;;;;;1.83;1.30;;;;;;;-145.69;100.00;52682.03;5116808;28;20663;-81
2023/02/01 00:30:23;;;;;;;2.07;1.30;;;;;;;-145.69;100.00;52652.34;5114358;28;20277;-81
2023/02/01 00:32:49;;;;;;;2.07;1.60;;;;;;;-145.69;100.00;52662.22;5099984;28;20189;-80
2023/02/01 00:35:16;;;;;;;1.60;1.23;;;;;;;-145.69;100.00;52644.41;5116546;28;20197;-82
2023/02/01 00:37:42;;;;;;;2.40;1.30;;;;;;;-145.69;100.00;52666.19;5116505;28;20202;-81
2023/02/01 00:40:11;;;;;;;2.40;1.53;;;;;;;-145.69;100.00;52664.22;5116734;28;20202;-81
2023/02/01 00:42:38;;;;;;;1.57;1.10;;;;;;;-145.69;100.00;52691.94;5116149;28;20217;-81
2023/02/01 00:45:05;;;;;;;1.83;1.10;;;;;;;-145.69;100.00;52682.03;5116024;28;20626;-81
2023/02/01 00:47:31;;;;;;;1.43;1.10;;;;;;;-145.69;100.00;52682.03;5116635;28;20200;-81
2023/02/01 00:49:58;;;;;;;1.10;1.00;;;;;;;-145.69;100.00;52648.38;5116429;28;20205;-81
2023/02/01 00:52:24;;;;;;;2.00;1.20;;;;;;;-145.69;100.00;52632.53;5116529;28;20213;-82
2023/02/01 00:54:51;;;;;;;2.87;1.23;;;;;;;-145.69;100.00;52662.22;5116044;28;20292;-82
2023/02/01 00:57:18;;;;;;;1.50;0.93;;;;;;;-145.69;100.00;52646.41;5116471;28;20205;-81
2023/02/01 00:59:45;;;;;;;1.63;1.20;;;;;;;-145.69;100.00;52652.34;5116023;28;20205;-80
2023/02/01 01:02:14;;;;;;;1.73;1.10;;;;;;;-145.69;100.00;52646.41;5115938;28;20644;-80
2023/02/01 01:04:40;;;;;;;3.13;1.13;;;;;;;-145.69;100.00;52634.50;5115915;28;20247;-80
2023/02/01 01:07:07;;;;;;;1.67;1.40;;;;;;;-145.69;100.00;52686.00;5116114;28;20197;-80
2023/02/01 01:09:33;;;;;;;2.53;1.20;;;;;;;-145.69;100.00;52686.00;5116082;28;20212;-81
2023/02/01 01:12:02;;;;;;;1.20;1.00;;;;;;;-145.69;100.00;52654.31;5115870;28;20216;-80
2023/02/01 01:14:30;;;;;;;1.43;1.17;;;;;;;-145.69;100.00;52662.22;5115898;28;20209;-81
2023/02/01 01:16:56;;;;;;;1.30;1.17;;;;;;;-145.69;100.00;52638.47;5115760;28;20587;-80
2023/02/01 01:19:23;;;;;;;2.83;1.40;;;;;;;-145.69;100.00;52699.88;5115887;28;20197;-80
2023/02/01 01:21:49;;;;;;;1.20;1.10;;;;;;;-145.69;100.00;52682.03;5115453;28;20656;-81
2023/02/01 01:24:15;;;;;;;1.23;1.03;;;;;;;-145.69;100.00;52642.44;5095307;28;20229;-81
2023/02/01 01:26:42;;;;;;;1.70;1.27;;;;;;;-145.69;100.00;52682.03;5095341;28;20202;-81
2023/02/01 01:29:10;;;;;;;2.07;1.00;;;;;;;-145.69;100.00;52670.16;5095136;28;20201;-81
2023/02/01 01:31:37;;;;;;;1.83;1.13;;;;;;;-145.69;100.00;52658.28;5095331;28;20235;-81
2023/02/01 01:34:04;;;;;;;2.43;1.47;;;;;;;-145.69;100.00;52662.22;5108120;28;20197;-81
2023/02/01 01:36:31;;;;;;;2.77;1.40;;;;;;;-145.69;100.00;52642.44;5115535;28;20197;-80
2023/02/01 01:38:57;;;;;;;1.73;1.33;;;;;;;-145.69;100.00;52650.34;5115745;28;20211;-81
2023/02/01 01:41:26;;;;;;;2.23;1.50;;;;;;;-145.69;100.00;52666.19;5115173;28;20657;-81
2023/02/01 01:43:56;;;;;;;1.80;1.40;;;;;;;-145.69;100.00;52658.28;5115220;28;20229;-81
2023/02/01 01:46:25;;;;;;;3.00;1.40;;;;;;;-145.69;100.00;52654.31;5115132;28;20592;-80
2023/02/01 01:48:57;;;;;;;1.97;1.30;;;;;;;-145.69;100.00;52664.22;5115324;28;20242;-80
2023/02/01 01:51:26;;;;;;;3.13;1.70;;;;;;;-145.69;100.00;52648.38;5115222;28;20201;-81
2023/02/01 01:54:00;;;;;;;2.80;1.77;;;;;;;-145.69;100.00;52658.28;5115062;28;20250;-81
2023/02/01 01:56:29;;;;;;;1.97;1.50;;;;;;;-145.69;100.00;52654.31;5115056;28;20202;-81
2023/02/01 01:58:56;;;;;;;2.27;1.50;;;;;;;-145.69;100.00;52646.41;5115385;28;20212;-80
2023/02/01 02:01:22;;;;;;;2.63;1.40;;;;;;;-145.69;100.00;52658.28;5114452;28;20254;-80
2023/02/01 02:03:51;;;;;;;1.67;1.40;;;;;;;-145.69;100.00;52622.63;5114460;28;20217;-80
2023/02/01 02:06:29;;;;;;;2.07;1.37;;;;;;;-145.69;100.00;52668.19;5114772;28;20198;-81
2023/02/01 02:08:55;;;;;;;3.10;1.20;;;;;;;-145.69;100.00;52658.28;5114349;28;20201;-80
2023/02/01 02:11:22;;;;;;;1.90;1.50;;;;;;;-145.69;100.00;52662.22;5114722;28;20198;-82
2023/02/01 02:13:52;;;;;;;2.17;1.37;;;;;;;-145.69;100.00;52666.19;5114576;28;20227;-82
2023/02/01 02:16:39;;;;;;;1.40;1.13;;;;;;;-145.69;100.00;52654.31;5114811;28;20660;-82
2023/02/01 02:19:36;;;;;;;1.40;1.10;;;;;;;-145.69;100.00;52630.53;5114540;28;20232;-82
2023/02/01 02:22:28;;;;;;;1.20;1.00;;;;;;;-145.69;100.00;52664.22;5060884;28;20194;-81
2023/02/01 02:25:16;;;;;;;1.17;1.00;;;;;;;-145.69;100.00;52644.41;5114636;28;20237;-82
2023/02/01 02:27:55;;;;;;;1.60;1.23;;;;;;;-145.69;100.00;52672.13;5111332;28;20648;-82
2023/02/01 02:31:00;;;;;;;1.60;1.20;;;;;;;-145.69;100.00;52622.63;5094310;28;20198;-82
2023/02/01 02:33:47;;;;;;;1.53;1.20;;;;;;;-145.69;100.00;52664.22;5067605;28;20200;-82
2023/02/01 02:36:20;;;;;;;1.13;1.03;;;;;;;-145.69;100.00;52658.28;5112184;28;20224;-82
2023/02/01 02:38:54;;;;;;;0.93;0.93;;;;;;;-145.69;100.00;52662.22;5114166;28;20671;-81
2023/02/01 02:47:27;;;;;;;3.60;1.13;;;;;;;-145.69;100.00;52674.13;5113878;28;20678;-81
2023/02/01 02:55:40;;;;;;;4.53;1.40;;;;;;;-145.69;100.00;52664.22;5114418;28;20203;-82
2023/02/01 03:06:26;;;;;;;1.43;1.17;;;;;;;-145.69;100.00;52666.19;5113904;28;20222;-81
2023/02/01 03:08:58;;;;;;;2.20;1.47;;;;;;;-145.69;100.00;52664.22;5113791;28;20197;-80
2023/02/01 03:12:55;;;;;;;2.10;1.60;;;;;;;-145.69;100.00;52674.13;5113520;28;20664;-81
2023/02/01 03:14:13;;;;;;;2.63;1.60;;;;;;;-145.69;100.00;52664.22;5113633;28;20192;-80
2023/02/01 03:16:47;;;;;;;2.27;1.50;;;;;;;-145.69;100.00;52670.16;5113697;28;20223;-81
2023/02/01 03:19:20;;;;;;;3.07;1.40;;;;;;;-145.69;100.00;52650.34;5113837;28;20695;-81
2023/02/01 03:21:53;;;;;;;2.50;1.43;;;;;;;-145.69;100.00;52674.13;5113531;28;20216;-81
2023/02/01 03:24:32;;;;;;;3.17;1.47;;;;;;;-145.69;100.00;52664.22;5113497;28;20273;-81
2023/02/01 03:27:03;;;;;;;2.60;1.50;;;;;;;-145.69;100.00;52654.31;5113881;28;20198;-80
2023/02/01 03:29:35;;;;;;;3.13;1.60;;;;;;;-145.69;100.00;52670.16;5113667;28;20197;-80
2023/02/01 03:32:02;;;;;;;1.57;1.00;;;;;;;-145.69;100.00;52646.41;5113014;28;20648;-81
2023/02/01 03:34:29;;;;;;;2.00;1.67;;;;;;;-145.69;100.00;52664.22;5113414;28;20204;-80
2023/02/01 03:37:01;;;;;;;2.23;1.30;;;;;;;-145.69;100.00;52610.75;5113326;28;20214;-80
2023/02/01 03:39:33;;;;;;;2.53;1.40;;;;;;;-145.69;100.00;52646.41;5113837;28;20678;-81
2023/02/01 03:42:03;;;;;;;3.60;1.83;;;;;;;-145.69;100.00;52646.41;5113299;28;20197;-80
2023/02/01 03:44:34;;;;;;;2.27;1.70;;;;;;;-145.69;100.00;52630.53;5113204;28;20221;-81
2023/02/01 03:47:07;;;;;;;3.00;1.37;;;;;;;-145.69;100.00;52676.09;5113049;28;20592;-80
2023/02/01 03:49:37;;;;;;;2.07;1.43;;;;;;;-145.69;100.00;52662.22;5113549;28;20620;-80
2023/02/01 03:52:07;;;;;;;1.53;1.03;;;;;;;-145.69;100.00;52662.22;5114185;28;20193;-82
2023/02/01 03:54:35;;;;;;;1.97;1.53;;;;;;;-145.69;100.00;52672.13;5117337;28;20232;-81
2023/02/01 03:57:08;;;;;;;1.83;1.30;;;;;;;-145.69;100.00;52638.47;5117476;28;20204;-80
2023/02/01 03:59:34;;;;;;;1.20;1.10;;;;;;;-145.69;100.00;52652.34;5117105;28;20678;-80
2023/02/01 04:02:01;;;;;;;1.85;1.30;;;;;;;-145.69;100.00;52662.22;5115885;28;20435;-80
2023/02/01 04:04:27;;;;;;;1.87;1.30;;;;;;;-145.69;100.00;52660.25;5113095;28;20217;-80
2023/02/01 04:06:54;;;;;;;1.20;1.10;;;;;;;-145.69;100.00;52656.28;5116926;28;20224;-79
2023/02/01 04:09:21;;;;;;;1.30;1.00;;;;;;;-145.69;100.00;52654.31;5116896;28;20842;-80
2023/02/01 04:11:48;;;;;;;1.80;1.10;;;;;;;-145.69;100.00;52678.09;5116870;28;20198;-80
2023/02/01 04:14:14;;;;;;;4.20;1.37;;;;;;;-145.69;100.00;52668.19;5117083;28;20212;-80
2023/02/01 04:16:41;;;;;;;1.40;1.20;;;;;;;-145.69;100.00;52638.47;5116884;28;20193;-80
2023/02/01 04:19:07;;;;;;;1.20;1.10;;;;;;;-145.69;100.00;52684.03;5116282;28;20197;-80
2023/02/01 04:21:34;;;;;;;1.70;1.10;;;;;;;-145.69;100.00;52678.09;5117028;28;20193;-80
2023/02/01 04:24:00;;;;;;;1.83;1.40;;;;;;;-145.69;100.00;52656.28;5116872;28;20684;-80
2023/02/01 04:26:28;;;;;;;2.83;1.63;;;;;;;-145.69;100.00;52660.25;5110748;28;20205;-80
2023/02/01 04:28:54;;;;;;;2.73;1.37;;;;;;;-145.69;100.00;52650.34;5110538;28;20190;-80
2023/02/01 04:31:25;;;;;;;2.40;1.50;;;;;;;-145.69;100.00;52640.44;5116536;28;20216;-81
2023/02/01 04:33:52;;;;;;;1.63;1.17;;;;;;;-145.69;100.00;52652.34;5116659;28;20197;-80
2023/02/01 04:36:19;;;;;;;2.53;1.90;;;;;;;-145.69;100.00;52674.13;5116028;28;20213;-80
2023/02/01 04:38:46;;;;;;;1.47;1.37;;;;;;;-145.69;100.00;52691.94;5116664;28;20201;-80
2023/02/01 04:41:12;;;;;;;2.07;1.60;;;;;;;-145.69;100.00;52686.00;5116384;28;20291;-82
2023/02/01 04:43:40;;;;;;;5.67;1.90;;;;;;;-145.69;100.00;52666.19;5116260;28;20248;-81
2023/02/01 04:46:06;;;;;;;2.07;1.40;;;;;;;-145.69;100.00;52642.44;5115515;28;20229;-81
2023/02/01 04:48:33;;;;;;;2.80;1.40;;;;;;;-145.69;100.00;52687.97;5115326;28;20204;-82
2023/02/01 04:50:59;;;;;;;2.38;1.80;;;;;;;-145.69;100.00;52678.09;5114165;28;20427;-81
2023/02/01 04:53:26;;;;;;;1.87;1.57;;;;;;;-145.69;100.00;52670.16;5115090;28;20208;-80
2023/02/01 04:55:52;;;;;;;2.93;1.83;;;;;;;-145.69;100.00;52654.31;5114828;28;20648;-80
2023/02/01 04:58:19;;;;;;;4.90;2.03;;;;;;;-145.69;100.00;52672.13;5113397;28;20204;-80
2023/02/01 05:00:47;;;;;;;3.07;2.00;;;;;;;-145.69;100.00;52662.22;5114566;28;20197;-80
2023/02/01 05:03:13;;;;;;;4.07;2.13;;;;;;;-145.69;100.00;52662.22;5114507;28;20202;-80
2023/02/01 05:05:40;;;;;;;2.90;1.63;;;;;;;-145.69;100.00;52693.94;5114640;28;20236;-81
2023/02/01 05:08:06;;;;;;;4.77;2.23;;;;;;;-145.69;100.00;52686.00;5114875;28;20214;-80
2023/02/01 05:10:33;;;;;;;5.73;2.10;;;;;;;-145.69;100.00;52676.09;5114844;28;20201;-81
2023/02/01 05:15:45;;;;;;;3.13;1.67;;;;;;;-145.69;100.00;52674.13;5114949;28;20208;-81
2023/02/01 05:18:13;;;;;;;2.07;1.57;;;;;;;-145.69;100.00;52699.88;5114469;28;20670;-81
2023/02/01 05:20:40;;;;;;;3.67;2.33;;;;;;;-145.69;100.00;52648.38;5114474;28;20208;-81
2023/02/01 05:23:06;;;;;;;3.77;1.63;;;;;;;-145.69;100.00;52668.19;5114749;28;20253;-81
2023/02/01 05:25:33;;;;;;;4.77;1.80;;;;;;;-145.69;100.00;52672.13;5114931;28;20229;-82
2023/02/01 05:27:59;;;;;;;4.17;2.60;;;;;;;-145.69;100.00;52666.19;5114794;28;20197;-81
2023/02/01 05:30:25;;;;;;;3.50;1.70;;;;;;;-145.69;100.00;52686.00;5113992;28;20707;-81
2023/02/01 05:32:53;;;;;;;1.97;1.53;;;;;;;-145.69;100.00;52658.28;5114496;28;20208;-81
2023/02/01 05:35:21;;;;;;;1.60;1.20;;;;;;;-145.69;100.00;52672.13;5114094;28;20200;-80
2023/02/01 05:37:47;;;;;;;1.37;1.27;;;;;;;-145.69;100.00;52664.22;5114405;28;20194;-81
2023/02/01 05:40:14;;;;;;;3.77;1.47;;;;;;;-145.69;100.00;52668.19;5114112;28;20197;-81
2023/02/01 05:42:40;;;;;;;2.37;1.23;;;;;;;-145.69;100.00;52670.16;5114493;28;20208;-81
2023/02/01 05:45:08;;;;;;;1.50;1.20;;;;;;;-145.69;100.00;52644.41;5077783;28;1032206;-81
2023/02/01 05:47:34;;;;;;;1.20;1.10;;;;;;;-145.69;100.00;52682.03;5114753;28;20233;-81
2023/02/01 05:50:01;;;;;;;3.40;1.63;;;;;;;-145.69;100.00;52664.22;5115339;28;20205;-80
2023/02/01 05:52:29;;;;;;;2.53;1.60;;;;;;;-145.69;100.00;52682.03;5115189;28;20201;-81
2023/02/01 05:54:55;;;;;;;1.57;1.47;;;;;;;-145.69;100.00;52662.22;5115584;28;20205;-82
2023/02/01 05:57:21;;;;;;;2.70;1.30;;;;;;;-145.69;100.00;52634.50;5115925;28;20197;-82
2023/02/01 05:59:48;;;;;;;3.57;1.80;;;;;;;-145.69;100.00;52650.34;5115526;28;20200;-82
2023/02/01 06:02:15;;;;;;;2.40;1.33;;;;;;;-145.69;100.00;52695.91;5114709;28;20201;-82
2023/02/01 06:04:41;;;;;;;4.40;2.03;;;;;;;-145.69;100.00;52666.19;5114983;28;20227;-82
2023/02/01 06:07:08;;;;;;;2.10;1.20;;;;;;;-145.69;100.00;52648.38;5115138;28;20529;-82
2023/02/01 06:09:37;;;;;;;1.13;1.03;;;;;;;-145.69;100.00;52687.97;5114770;28;20201;-81
2023/02/01 06:12:04;;;;;;;1.93;1.23;;;;;;;-145.69;100.00;52666.19;5114698;28;20193;-81
2023/02/01 06:14:30;;;;;;;2.57;1.60;;;;;;;-145.69;100.00;52674.13;5113668;28;20675;-81
2023/02/01 06:16:57;;;;;;;1.90;1.30;;;;;;;-145.69;100.00;52678.09;5113986;28;20228;-81
2023/02/01 06:19:23;;;;;;;1.30;1.20;;;;;;;-145.69;100.00;52666.19;5096437;28;20205;-81
2023/02/01 06:21:50;;;;;;;2.63;1.00;;;;;;;-145.69;100.00;52656.28;5094708;28;20205;-82
2023/02/01 06:24:16;;;;;;;3.23;1.60;;;;;;;-145.69;100.00;52660.25;5093867;28;20604;-82
2023/02/01 06:26:44;;;;;;;2.63;1.30;;;;;;;-145.69;100.00;52630.53;5101823;28;20552;-82
2023/02/01 06:29:11;;;;;;;2.70;1.20;;;;;;;-145.69;100.00;52676.09;5114759;28;20193;-81
2023/02/01 06:31:38;;;;;;;3.20;1.03;;;;;;;-145.69;100.00;52650.34;5114399;28;20582;-82
2023/02/01 06:34:04;;;;;;;1.40;1.00;;;;;;;-145.69;100.00;52670.16;5113787;28;20600;-81
2023/02/01 06:36:31;;;;;;;1.47;1.20;;;;;;;-145.69;100.00;52674.13;5114148;28;20648;-81
2023/02/01 06:38:59;;;;;;;1.57;1.07;;;;;;;-145.69;100.00;52662.22;5114213;28;20205;-80
2023/02/01 06:41:25;;;;;;;1.73;1.33;;;;;;;-145.69;100.00;52636.50;5113998;28;20193;-81
2023/02/01 06:43:53;;;;;;;1.40;1.30;;;;;;;-145.69;100.00;52638.47;5113767;28;20197;-80
2023/02/01 06:46:19;;;;;;;4.37;1.40;;;;;;;-145.69;100.00;52686.00;5113893;28;20572;-81
2023/02/01 06:48:46;;;;;;;2.53;1.60;;;;;;;-145.69;100.00;52682.03;5114261;28;20194;-80
2023/02/01 06:51:21;;;;;;;2.67;1.87;;;;;;;-145.69;100.00;52652.34;5114877;28;20193;-80
2023/02/01 06:53:47;;;;;;;2.63;1.60;;;;;;;-145.69;100.00;52680.06;5113845;28;20661;-80
2023/02/01 06:56:14;;;;;;;4.80;2.13;;;;;;;-145.69;100.00;52680.06;5113824;28;20201;-79
2023/02/01 06:58:40;;;;;;;2.80;1.70;;;;;;;-145.69;100.00;52634.50;5113935;28;20205;-81
2023/02/01 07:01:10;;;;;;;2.80;1.60;;;;;;;-145.69;100.00;52676.09;5115024;28;20204;-81
2023/02/01 07:03:37;;;;;;;2.53;1.50;;;;;;;-145.69;100.00;52662.22;5114016;28;20201;-81
2023/02/01 07:06:04;;;;;;;3.07;1.67;;;;;;;-145.69;100.00;52662.22;5113572;28;20232;-81
2023/02/01 07:08:31;;;;;;;4.83;2.67;;;;;;;-145.69;100.00;52693.94;5113713;28;20292;-80
2023/02/01 07:11:01;;;;;;;2.13;1.63;;;;;;;-145.69;100.00;52648.38;5113007;28;20204;-82
2023/02/01 07:13:28;;;;;;;2.93;1.67;;;;;;;-145.69;100.00;52680.06;5113813;28;20243;-79
2023/02/01 07:15:54;;;;;;;1.67;1.50;;;;;;;-145.69;100.00;52686.00;5113672;28;20209;-81
2023/02/01 07:18:22;;;;;;;2.90;1.63;;;;;;;-145.69;100.00;52658.28;5113544;28;20193;-80
2023/02/01 07:20:50;;;;;;;8.03;2.03;;;;;;;-145.69;100.00;52632.53;5113575;28;20690;-80
2023/02/01 07:23:17;;;;;;;3.00;1.90;;;;;;;-145.69;100.00;52676.09;5112228;28;20491;-79
2023/02/01 07:25:43;;;;;;;4.60;1.70;;;;;;;-145.69;100.00;52672.13;5112878;28;20225;-79
2023/02/01 07:28:10;;;;;;;3.87;2.10;;;;;;;-145.69;100.00;52670.16;5113668;28;20564;-79
2023/02/01 07:30:36;;;;;;;3.00;2.10;;;;;;;-145.69;100.00;52693.94;5112977;28;20220;-80
2023/02/01 07:33:03;;;;;;;2.43;1.73;;;;;;;-145.69;100.00;52634.50;5113460;28;20256;-79
2023/02/01 07:35:31;;;;;;;6.70;3.30;;;;;;;-145.69;100.00;52652.34;5112738;28;20193;-80
2023/02/01 07:37:58;;;;;;;3.37;2.53;;;;;;;-145.69;100.00;52666.19;5113094;28;20205;-80
2023/02/01 07:40:28;;;;;;;3.37;2.00;;;;;;;-145.69;100.00;52648.38;5113071;28;20216;-80
2023/02/01 07:42:55;;;;;;;5.10;3.20;;;;;;;-145.69;100.00;52654.31;5113303;28;20201;-81
2023/02/01 07:45:21;;;;;;;4.90;2.77;;;;;;;-145.69;100.00;52682.03;5112966;28;20247;-81
2023/02/01 07:47:48;;;;;;;4.87;2.03;;;;;;;-145.69;100.00;52684.03;5113115;28;20201;-80
2023/02/01 07:50:15;;;;;;;2.80;2.20;;;;;;;-145.69;100.00;52680.06;5113318;28;20197;-81
2023/02/01 07:52:42;;;;;;;5.47;2.30;;;;;;;-145.69;100.00;52684.03;5112902;28;20201;-81
2023/02/01 07:55:10;;;;;;;4.40;2.80;;;;;;;-145.69;100.00;52666.19;5113079;28;20201;-80
2023/02/01 07:57:36;;;;;;;4.03;2.47;;;;;;;-145.69;100.00;52670.16;5112832;28;20690;-81
2023/02/01 08:02:47;;;;;;;6.90;2.07;;;;;;;-145.69;100.00;52699.88;5113140;28;20277;-80
2023/02/01 08:05:14;;;;;;;3.00;2.13;;;;;;;-145.69;100.00;52686.00;5112349;28;20706;-81
2023/02/01 08:07:40;;;;;;;2.70;1.70;;;;;;;-145.69;100.00;52670.16;5113383;28;20216;-82
2023/02/01 08:10:11;;;;;;;2.17;1.70;;;;;;;-145.69;100.00;52666.19;5113104;28;20205;-80
2023/02/01 08:12:38;;;;;;;3.77;1.70;;;;;;;-145.69;100.00;52686.00;5113158;28;20720;-82
2023/02/01 08:15:05;;;;;;;3.00;1.70;;;;;;;-145.69;100.00;52668.19;5112640;28;20193;-80
2023/02/01 08:17:32;;;;;;;3.87;2.00;;;;;;;-145.69;100.00;52662.22;5112675;28;20216;-81
2023/02/01 08:19:58;;;;;;;3.80;1.50;;;;;;;-145.69;100.00;52682.03;5112655;28;20194;-81
2023/02/01 08:22:24;;;;;;;3.93;1.90;;;;;;;-145.69;100.00;52654.31;5112707;28;20197;-81
2023/02/01 08:24:51;;;;;;;1.77;1.43;;;;;;;-145.69;100.00;52674.13;5113070;28;20698;-81
2023/02/01 08:27:19;;;;;;;3.73;2.00;;;;;;;-145.69;100.00;52638.47;5109368;28;20206;-80
2023/02/01 08:29:45;;;;;;;3.30;2.17;;;;;;;-145.69;100.00;52687.97;5112670;28;20198;-81
2023/02/01 08:32:12;;;;;;;5.40;2.23;;;;;;;-145.69;100.00;52660.25;5112344;28;20200;-81
2023/02/01 08:34:38;;;;;;;4.07;2.37;;;;;;;-145.69;100.00;52697.88;5112740;28;20200;-80
2023/02/01 08:37:07;;;;;;;3.67;2.33;;;;;;;-145.69;100.00;52674.13;5112756;28;20201;-80
2023/02/01 08:39:33;;;;;;;5.57;2.60;;;;;;;-145.69;100.00;52670.16;5115893;28;20201;-80
2023/02/01 08:44:45;;;;;;;11.60;3.07;;;;;;;-145.69;100.00;52666.19;5116171;28;20204;-79
2023/02/01 08:47:13;;;;;;;5.70;3.13;;;;;;;-145.69;100.00;52678.09;5116724;28;20197;-80
2023/02/01 08:49:39;;;;;;;10.20;3.37;;;;;;;-145.69;100.00;52695.91;5116422;28;20194;-81
2023/02/01 08:52:06;;;;;;;5.73;2.77;;;;;;;-145.69;100.00;52656.28;5116053;28;20204;-79
2023/02/01 08:54:32;;;;;;;4.30;2.67;;;;;;;-145.69;100.00;52682.03;5116080;28;20193;-78
2023/02/01 08:56:59;;;;;;;4.43;2.23;;;;;;;-145.69;100.00;52693.94;5116185;28;20201;-79
2023/02/01 08:59:25;;;;;;;5.53;2.67;;;;;;;-145.69;100.00;52630.53;5116205;28;20224;-82
2023/02/01 09:01:53;;;;;;;6.83;3.30;;;;;;;-145.69;100.00;52682.03;5116394;28;20230;-81
2023/02/01 09:04:20;;;;;;;3.87;2.43;;;;;;;-145.69;100.00;52650.34;5116374;28;20202;-79
2023/02/01 09:06:46;;;;;;;3.77;2.17;;;;;;;-145.69;100.00;52670.16;5115636;28;20221;-79
2023/02/01 09:09:12;;;;;;;4.77;2.33;;;;;;;-145.69;100.00;52666.19;5115954;28;20197;-79
2023/02/01 09:11:39;;;;;;;2.80;1.97;;;;;;;-145.69;100.00;52670.16;5115738;28;20205;-80
2023/02/01 09:14:05;;;;;;;4.03;1.80;;;;;;;-145.69;100.00;52676.09;5115579;28;20663;-80
2023/02/01 09:16:32;;;;;;;6.63;2.50;;;;;;;-145.69;100.00;52664.22;5115926;28;20205;-80
2023/02/01 09:19:00;;;;;;;4.87;2.40;;;;;;;-145.69;100.00;52693.94;5115582;28;20205;-80
2023/02/01 09:21:26;;;;;;;4.33;2.03;;;;;;;-145.69;100.00;52666.19;5115726;28;20198;-80
2023/02/01 09:23:53;;;;;;;6.33;1.83;;;;;;;-145.69;100.00;52666.19;5115498;28;20194;-80
2023/02/01 09:26:19;;;;;;;4.97;2.20;;;;;;;-145.69;100.00;52674.13;5115462;28;20237;-79
2023/02/01 09:28:46;;;;;;;4.20;1.80;;;;;;;-145.69;100.00;52644.41;5115509;28;20201;-79
2023/02/01 09:31:12;;;;;;;5.73;1.70;;;;;;;-145.69;100.00;52674.13;5115582;28;20243;-79
2023/02/01 09:33:39;;;;;;;4.57;2.10;;;;;;;-145.69;100.00;52658.28;5105358;28;20198;-81
2023/02/01 09:36:08;;;;;;;8.13;1.87;;;;;;;-145.69;100.00;52682.03;5115023;28;20204;-80
2023/02/01 09:38:34;;;;;;;9.03;2.27;;;;;;;-145.69;100.00;52664.22;5115182;28;20555;-80
2023/02/01 09:41:01;;;;;;;4.13;1.93;;;;;;;-145.69;100.00;52658.28;5115118;28;20208;-80
2023/02/01 09:43:39;;;;;;;5.33;1.80;;;;;;;-145.69;100.00;52672.13;5115212;28;20198;-77
2023/02/01 09:46:24;;;;;;;10.40;3.57;;;;;;;-145.69;100.00;52660.25;5114598;28;20660;-77
2023/02/01 09:48:54;;;;;;;10.47;2.73;;;;;;;-145.69;100.00;52666.19;5115226;28;20194;-77
2023/02/01 09:51:27;;;;;;;4.03;2.03;;;;;;;-145.69;100.00;52642.44;5114213;28;20208;-77
2023/02/01 09:54:01;;;;;;;5.43;1.70;;;;;;;-145.69;100.00;52634.50;5114958;28;20190;-76
2023/02/01 09:56:35;;;;;;;5.90;2.10;;;;;;;-145.69;100.00;52638.47;5094478;28;20198;-76
2023/02/01 09:59:10;;;;;;;4.83;2.20;;;;;;;-145.69;100.00;52674.13;5094468;28;20613;-79
2023/02/01 10:01:38;;;;;;;6.17;2.47;;;;;;;-145.69;100.00;52654.31;5094381;28;20201;-79
2023/02/01 10:04:07;;;;;;;5.17;1.90;;;;;;;-145.69;100.00;52654.31;5097668;28;20919;-80
2023/02/01 10:06:49;;;;;;;9.40;2.30;;;;;;;-145.69;100.00;52630.53;5114180;28;20229;-79
2023/02/01 10:09:30;;;;;;;8.23;2.63;;;;;;;-145.69;100.00;52723.63;5114875;28;20199;-80
2023/02/01 10:12:26;;;;;;;6.73;1.90;;;;;;;-145.69;100.00;52634.50;5114650;28;20262;-79
2023/02/01 10:15:03;;;;;;;13.37;2.77;;;;;;;-145.69;100.00;52678.09;5114747;28;20193;-79
2023/02/01 10:17:49;;;;;;;8.00;2.27;;;;;;;-145.69;100.00;52670.16;5114469;28;20715;-80
2023/02/01 10:20:26;;;;;;;8.03;2.13;;;;;;;-145.69;100.00;52650.34;5114689;28;20586;-80
2023/02/01 10:23:05;;;;;;;11.03;2.30;;;;;;;-145.69;100.00;52636.50;5114193;28;20595;-76
2023/02/01 10:25:36;;;;;;;6.93;2.80;;;;;;;-145.69;100.00;52684.03;5111573;28;20842;-76
2023/02/01 10:28:05;;;;;;;5.73;2.10;;;;;;;-145.69;100.00;52658.28;5113891;28;20644;-79
2023/02/01 10:30:40;;;;;;;4.60;2.10;;;;;;;-145.69;100.00;52654.31;5114181;28;20212;-79
2023/02/01 10:33:16;;;;;;;7.87;2.77;;;;;;;-145.69;100.00;52658.28;5113784;28;20201;-79
2023/02/01 10:35:45;;;;;;;9.67;2.60;;;;;;;-145.69;100.00;52697.88;5114037;28;20204;-79
2023/02/01 10:38:27;;;;;;;10.47;3.50;;;;;;;-145.69;100.00;52646.41;5114352;28;20287;-81
2023/02/01 10:40:55;;;;;;;7.93;2.40;;;;;;;-145.69;100.00;52658.28;5114284;28;20197;-81
2023/02/01 10:43:22;;;;;;;10.33;2.67;;;;;;;-145.69;100.00;52646.41;5114027;28;20198;-78
2023/02/01 10:45:49;;;;;;;4.83;2.10;;;;;;;-145.69;100.00;52680.06;5113611;28;20720;-77
2023/02/01 10:48:15;;;;;;;7.03;2.60;;;;;;;-145.69;100.00;52670.16;5113932;28;20201;-78
2023/02/01 10:50:50;;;;;;;7.67;2.40;;;;;;;-145.69;100.00;52642.44;5113940;28;20202;-78
2023/02/01 10:53:22;;;;;;;4.60;2.30;;;;;;;-145.69;100.00;52656.28;5113683;28;20193;-79
2023/02/01 10:55:50;;;;;;;7.60;2.70;;;;;;;-145.69;100.00;52614.72;5113547;28;20212;-80
2023/02/01 10:58:18;;;;;;;6.63;2.40;;;;;;;-145.69;100.00;52682.03;5113603;28;20234;-78
2023/02/01 11:00:48;;;;;;;6.87;2.30;;;;;;;-145.69;100.00;52622.63;5113005;28;20197;-78
2023/02/01 11:03:31;;;;;;;8.20;2.80;;;;;;;-145.69;100.00;52678.09;5113749;28;20198;-78
2023/02/01 11:05:58;;;;;;;9.77;2.63;;;;;;;-145.69;100.00;52662.22;5113697;28;20221;-78
2023/02/01 11:08:26;;;;;;;5.03;2.63;;;;;;;-145.69;100.00;52652.34;5112275;28;20201;-78
2023/02/01 11:10:59;;;;;;;4.37;2.50;;;;;;;-145.69;100.00;52662.22;5113896;28;20197;-78
2023/02/01 11:13:32;;;;;;;7.43;2.93;;;;;;;-145.69;100.00;52636.50;5113559;28;20201;-77
2023/02/01 11:15:59;;;;;;;9.03;3.80;;;;;;;-145.69;100.00;52634.50;5112345;28;20226;-80
2023/02/01 11:18:28;;;;;;;7.37;2.60;;;;;;;-145.69;100.00;52646.41;5113500;28;20204;-79
2023/02/01 11:20:55;;;;;;;9.10;2.70;;;;;;;-145.69;100.00;52713.72;5113504;28;20197;-79
2023/02/01 11:23:25;;;;;;;11.37;4.80;;;;;;;-145.69;100.00;52660.25;5113074;28;20204;-79
2023/02/01 11:25:55;;;;;;;8.03;2.73;;;;;;;-145.69;100.00;52652.34;5113299;28;20229;-79
2023/02/01 11:28:24;;;;;;;7.30;2.20;;;;;;;-145.69;100.00;52638.47;5113326;28;20205;-79
2023/02/01 11:30:54;;;;;;;7.30;2.00;;;;;;;-145.69;100.00;52668.19;5113416;28;20197;-79
2023/02/01 11:33:27;;;;;;;7.80;3.10;;;;;;;-145.69;100.00;52626.59;5113134;28;20326;-79
2023/02/01 11:35:54;;;;;;;10.43;3.33;;;;;;;-145.69;100.00;52650.34;5113294;28;20209;-78
2023/02/01 11:38:23;;;;;;;8.00;2.50;;;;;;;-145.69;100.00;52680.06;5113002;28;20275;-78
2023/02/01 11:40:50;;;;;;;5.43;2.13;;;;;;;-145.69;100.00;52660.25;5113355;28;20201;-79
2023/02/01 11:43:24;;;;;;;10.07;2.43;;;;;;;-145.69;100.00;52636.50;5113222;28;20201;-79
2023/02/01 11:45:59;;;;;;;10.83;2.13;;;;;;;-145.69;100.00;52664.22;5112544;28;20278;-79